Bucks, AL (36512)

7:43 AM CDT on September 26, 2016 (GMT -0500)
APRSWXNET | | Change Station

Elev 49 ft 31.15 °N, 88.00 °W | Updated 27 minutes ago

Scattered Clouds
Scattered Clouds
70 °F
Feels Like 70 °F
N
0
Wind Variable Wind from NNE
Gusts 0.0 mph

Today
High -- | Low -- °F
--% Chance of Precip.
Yesterday
High -- | Low -- °F
Precip. -- in
Pressure 30.01 in
Visibility 7.0 miles
Clouds Few 5000 ft
Scattered Clouds 25000 ft
Dew Point 68 °F
Humidity 95%
Rainfall in
Snow Depth Not available.
6:43 AM 6:42 PM
Waning Crescent, 19% visible
METAR KMOB 261156Z 00000KT 7SM FEW050 SCT250 21/20 A3001 RMK AO2 SLP160 CB DSNT SE-SW 70001 T02060200 10228 20206 50007
Pressure 30.01 in
Visibility 7.0 miles
Clouds Few 5000 ft
Scattered Clouds 25000 ft
Dew Point 68 °F
Humidity 95%
Rainfall in
Snow Depth Not available.
6:43 AM 6:42 PM
Waning Crescent, 19% visible
METAR KMOB 261156Z 00000KT 7SM FEW050 SCT250 21/20 A3001 RMK AO2 SLP160 CB DSNT SE-SW 70001 T02060200 10228 20206 50007

10-Day Weather Forecast

Almanac

Astronomy

Sep. 26, 2016 Rise Set
Actual Time
Civil Twilight
Nautical Twilight
Astronomical Twilight
Moon
Length of Visible Light
Length of Day
Tomorrow will be .
, % of the Moon is Illuminated

Today's Extremes

State Highs State Lows

Community

WunderPhotos

Upload Photos

1,941,870 photos uploaded!

WunderBlog® & News

Nearby

Air Quality

  Air Quality AQ Index Pollutant
Not available.

Snow Depth

Station Depth Elevation

Earthquake Activity

City Distance Mag. Time & Date
Minimum magnitude displayed is 2.5.

Coastal Water Temperatures

Place Temperature

Stations

Nearby Weather Stations

Station Location Temp. Windchill Dew Point Humidity Wind Precip. Elev Updated Type
                   

Watches & Warnings

There are currently no watches in effect.